createdAt,value
2023-04-15T00:02:27.713Z,1.17
2023-04-15T00:04:57.022Z,1.25
2023-04-15T00:07:26.278Z,1.15
2023-04-15T00:10:02.187Z,0.68
2023-04-15T00:12:40.843Z,1.48
2023-04-15T00:15:12.250Z,1.20
2023-04-15T00:17:41.864Z,1.52
2023-04-15T00:20:12.431Z,1.02
2023-04-15T00:22:48.489Z,1.08
2023-04-15T00:25:17.877Z,1.27
2023-04-15T00:27:54.065Z,1.95
2023-04-15T00:30:23.543Z,1.60
2023-04-15T00:32:53.446Z,1.80
2023-04-15T00:35:24.606Z,1.42
2023-04-15T00:37:53.862Z,1.45
2023-04-15T00:40:34.071Z,1.60
2023-04-15T00:43:06.777Z,1.42
2023-04-15T00:45:36.370Z,1.35
2023-04-15T00:48:06.608Z,1.20
2023-04-15T00:50:35.992Z,0.90
2023-04-15T00:53:10.417Z,1.23
2023-04-15T00:55:45.762Z,1.35
2023-04-15T00:58:22.099Z,1.40
2023-04-15T01:00:58.674Z,1.10
2023-04-15T01:03:33.197Z,1.17
2023-04-15T01:06:04.121Z,1.40
2023-04-15T01:08:34.049Z,1.30
2023-04-15T01:11:04.968Z,1.10
2023-04-15T01:13:41.545Z,1.98
2023-04-15T01:16:11.404Z,1.15
2023-04-15T01:18:40.786Z,1.70
2023-04-15T01:21:10.389Z,1.65
2023-04-15T01:23:40.378Z,1.25
2023-04-15T01:26:12.374Z,1.17
2023-04-15T01:28:41.912Z,1.65
2023-04-15T01:31:12.160Z,1.80
2023-04-15T01:33:48.018Z,1.83
2023-04-15T01:36:36.488Z,1.58
2023-04-15T01:39:06.393Z,2.30
2023-04-15T01:41:37.674Z,1.52
2023-04-15T01:44:12.807Z,2.10
2023-04-15T01:46:48.041Z,2.10
2023-04-15T01:49:17.836Z,2.00
2023-04-15T01:51:46.981Z,1.73
2023-04-15T01:54:22.304Z,1.90
2023-04-15T01:56:56.375Z,1.92
2023-04-15T01:59:27.384Z,1.95
2023-04-15T02:01:57.106Z,1.75
2023-04-15T02:04:26.388Z,1.88
2023-04-15T02:06:56.501Z,1.80
2023-04-15T02:09:25.907Z,1.65
2023-04-15T02:12:02.136Z,2.00
2023-04-15T02:14:36.421Z,1.70
2023-04-15T02:17:10.892Z,1.00
2023-04-15T02:19:40.259Z,1.73
2023-04-15T02:22:11.087Z,1.30
2023-04-15T02:24:40.444Z,1.93
2023-04-15T02:27:11.663Z,1.30
2023-04-15T02:29:40.984Z,0.90
2023-04-15T02:32:17.620Z,1.50
2023-04-15T02:34:46.996Z,1.15
2023-04-15T02:37:16.853Z,1.08
2023-04-15T02:39:46.244Z,1.20
2023-04-15T02:42:17.459Z,1.10
2023-04-15T02:44:46.685Z,0.70
2023-04-15T02:47:16.155Z,1.30
2023-04-15T02:49:45.824Z,1.52
2023-04-15T02:52:20.525Z,1.13
2023-04-15T02:54:53.809Z,1.73
2023-04-15T02:57:25.850Z,1.30
2023-04-15T03:00:04.440Z,1.15
2023-04-15T03:02:36.624Z,1.48
2023-04-15T03:05:08.142Z,1.52
2023-04-15T03:07:42.344Z,1.67
2023-04-15T03:10:12.559Z,1.25
2023-04-15T03:12:44.145Z,1.60
2023-04-15T03:15:18.712Z,1.60
2023-04-15T03:18:00.262Z,1.45
2023-04-15T03:20:29.544Z,1.23
2023-04-15T03:22:58.695Z,1.80
2023-04-15T03:25:39.202Z,0.90
2023-04-15T03:28:11.752Z,1.50
2023-04-15T03:30:46.593Z,1.08
2023-04-15T03:33:16.077Z,1.52
2023-04-15T03:35:52.488Z,1.77
2023-04-15T03:38:21.681Z,1.42
2023-04-15T03:40:51.767Z,1.20
2023-04-15T03:43:29.480Z,1.65
2023-04-15T03:46:01.404Z,1.75
2023-04-15T03:48:31.122Z,1.63
2023-04-15T03:51:00.162Z,2.03
2023-04-15T03:53:29.458Z,1.80
2023-04-15T03:56:14.741Z,1.92
2023-04-15T03:58:45.867Z,1.95
2023-04-15T04:01:20.508Z,1.30
2023-04-15T04:03:49.973Z,1.50
2023-04-15T04:06:19.541Z,1.65
2023-04-15T04:08:48.825Z,1.50
2023-04-15T04:11:18.200Z,2.03
2023-04-15T04:13:49.309Z,1.30
2023-04-15T04:16:18.475Z,1.38
2023-04-15T04:18:52.780Z,1.52
2023-04-15T04:21:22.403Z,1.50
2023-04-15T04:23:51.794Z,1.50
2023-04-15T04:26:27.077Z,1.50
2023-04-15T04:29:07.790Z,1.83
2023-04-15T04:31:36.943Z,1.70
2023-04-15T04:34:06.623Z,1.30
2023-04-15T04:36:40.903Z,1.30
2023-04-15T04:39:15.086Z,1.35
2023-04-15T04:41:44.330Z,0.90
2023-04-15T04:44:21.928Z,1.55
2023-04-15T04:46:51.084Z,1.38
2023-04-15T04:49:25.327Z,1.10
2023-04-15T04:51:54.757Z,1.20
2023-04-15T04:54:24.000Z,1.23
2023-04-15T04:56:53.275Z,1.05
2023-04-15T04:59:30.618Z,1.08
2023-04-15T05:01:59.964Z,1.33
2023-04-15T05:04:29.304Z,1.10
2023-04-15T05:06:59.050Z,0.90
2023-04-15T05:09:29.090Z,0.70
2023-04-15T05:11:58.178Z,0.80
2023-04-15T05:14:34.388Z,0.70
2023-04-15T05:17:03.715Z,1.02
2023-04-15T05:19:32.867Z,1.25
2023-04-15T05:24:37.187Z,1.27
2023-04-15T05:27:08.169Z,1.25
2023-04-15T05:29:39.386Z,1.38
2023-04-15T05:32:09.069Z,1.40
2023-04-15T05:34:38.289Z,1.30
2023-04-15T05:37:07.622Z,1.10
2023-04-15T05:39:36.767Z,1.10
2023-04-15T05:42:06.045Z,1.30
2023-04-15T05:44:48.495Z,1.13
2023-04-15T05:47:17.714Z,0.80
2023-04-15T05:49:46.896Z,0.88
2023-04-15T05:52:16.370Z,1.15
2023-04-15T05:54:45.474Z,1.15
2023-04-15T05:57:14.822Z,1.45
2023-04-15T05:59:52.186Z,1.13
2023-04-15T06:02:21.806Z,1.00
2023-04-15T06:04:51.116Z,1.13
2023-04-15T06:07:20.806Z,2.25
2023-04-15T06:09:49.998Z,1.20
2023-04-15T06:12:30.642Z,1.20
2023-04-15T06:15:02.088Z,1.40
2023-04-15T06:17:31.501Z,0.93
2023-04-15T06:20:00.783Z,1.20
2023-04-15T06:22:30.215Z,1.58
2023-04-15T06:24:59.654Z,1.40
2023-04-15T06:27:28.815Z,0.85
2023-04-15T06:30:05.224Z,1.20
2023-04-15T06:32:34.616Z,1.05
2023-04-15T06:35:09.303Z,1.45
2023-04-15T06:37:39.033Z,1.20
2023-04-15T06:40:10.367Z,1.20
2023-04-15T06:42:39.902Z,1.33
2023-04-15T06:45:17.551Z,1.13
2023-04-15T06:47:46.994Z,1.33
2023-04-15T06:50:16.491Z,1.30
2023-04-15T06:52:50.888Z,1.83
2023-04-15T06:55:33.669Z,1.20
2023-04-15T06:58:03.265Z,1.25
2023-04-15T07:00:35.325Z,1.10
2023-04-15T07:03:05.331Z,1.40
2023-04-15T07:05:34.608Z,1.10
2023-04-15T07:08:03.720Z,1.15
2023-04-15T07:10:43.051Z,1.40
2023-04-15T07:13:12.521Z,1.75
2023-04-15T07:15:43.850Z,1.05
2023-04-15T07:18:13.765Z,0.93
2023-04-15T07:20:43.327Z,1.20
2023-04-15T07:23:18.576Z,1.00
2023-04-15T07:25:47.934Z,1.40
2023-04-15T07:28:17.174Z,1.60
2023-04-15T07:30:48.757Z,1.65
2023-04-15T07:33:17.984Z,1.45
2023-04-15T07:35:54.822Z,1.67
2023-04-15T07:38:24.358Z,1.70
2023-04-15T07:40:54.635Z,1.58
2023-04-15T07:43:23.805Z,1.23
2023-04-15T07:46:00.282Z,1.58
2023-04-15T07:48:29.624Z,1.23
2023-04-15T07:51:01.016Z,1.98
2023-04-15T07:53:31.165Z,1.55
2023-04-15T07:56:00.577Z,1.70
2023-04-15T07:58:39.863Z,1.70
2023-04-15T08:01:11.354Z,1.75
2023-04-15T08:03:43.051Z,1.40
2023-04-15T08:06:20.556Z,1.17
2023-04-15T08:08:49.876Z,1.90
2023-04-15T08:11:19.438Z,1.23
2023-04-15T08:13:48.806Z,1.27
2023-04-15T08:16:25.571Z,1.20
2023-04-15T08:18:55.705Z,1.67
2023-04-15T08:21:25.646Z,1.35
2023-04-15T08:23:56.260Z,1.42
2023-04-15T08:26:30.930Z,1.60
2023-04-15T08:29:00.484Z,1.73
2023-04-15T08:31:37.746Z,1.33
2023-04-15T08:34:07.327Z,1.73
2023-04-15T08:36:36.562Z,1.40
2023-04-15T08:39:06.664Z,1.60
2023-04-15T08:41:41.731Z,1.30
2023-04-15T08:44:16.713Z,1.63
2023-04-15T08:46:53.644Z,1.73
2023-04-15T08:49:25.684Z,1.80
2023-04-15T08:51:56.317Z,1.70
2023-04-15T08:54:26.894Z,1.48
2023-04-15T08:57:02.006Z,1.27
2023-04-15T08:59:32.740Z,1.23
2023-04-15T09:02:10.100Z,1.65
2023-04-15T09:04:39.580Z,1.30
2023-04-15T09:07:08.961Z,1.58
2023-04-15T09:09:39.952Z,2.03
2023-04-15T09:12:10.706Z,1.38
2023-04-15T09:14:42.036Z,1.60
2023-04-15T09:17:13.686Z,1.40
2023-04-15T09:22:39.565Z,1.60
2023-04-15T09:25:28.521Z,1.33
2023-04-15T09:28:00.242Z,1.23
2023-04-15T09:30:36.487Z,1.30
2023-04-15T09:33:10.565Z,1.35
2023-04-15T09:35:46.477Z,1.25
2023-04-15T09:38:15.753Z,1.30
2023-04-15T09:40:45.267Z,1.52
2023-04-15T09:43:21.156Z,1.70
2023-04-15T09:45:53.304Z,0.93
2023-04-15T09:48:27.910Z,1.63
2023-04-15T09:51:03.070Z,1.52
2023-04-15T09:53:34.887Z,2.35
2023-04-15T09:58:35.454Z,1.00
2023-04-15T10:01:08.823Z,1.40
2023-04-15T10:03:42.863Z,1.40
2023-04-15T10:06:12.929Z,1.63
2023-04-15T10:08:57.443Z,1.42
2023-04-15T10:11:27.493Z,1.25
2023-04-15T10:16:37.235Z,1.48
2023-04-15T10:19:11.242Z,1.13
2023-04-15T10:21:41.087Z,1.58
2023-04-15T10:24:11.072Z,1.10
2023-04-15T10:29:29.685Z,2.00
2023-04-15T10:32:18.499Z,1.40
2023-04-15T10:34:54.316Z,2.00
2023-04-15T10:37:24.995Z,1.45
2023-04-15T10:39:54.325Z,1.70
2023-04-15T10:42:24.395Z,1.60
2023-04-15T10:44:59.157Z,1.45
2023-04-15T10:47:41.947Z,1.40
2023-04-15T10:50:13.629Z,1.30
2023-04-15T10:52:43.772Z,1.50
2023-04-15T10:55:28.369Z,1.33
2023-04-15T10:58:02.726Z,1.70
2023-04-15T11:00:39.683Z,1.85
2023-04-15T11:03:14.051Z,1.10
2023-04-15T11:09:02.109Z,1.58
2023-04-15T11:12:08.449Z,1.70
2023-04-15T11:14:47.589Z,1.40
2023-04-15T11:17:16.959Z,1.75
2023-04-15T11:20:01.371Z,1.35
2023-04-15T11:22:33.198Z,1.80
2023-04-15T11:25:23.890Z,1.50
2023-04-15T11:27:54.382Z,2.17
2023-04-15T11:30:25.190Z,1.55
2023-04-15T11:33:02.489Z,1.52
2023-04-15T11:35:36.678Z,1.48
2023-04-15T11:38:11.594Z,1.98
2023-04-15T11:40:47.192Z,2.30
2023-04-15T11:43:23.070Z,2.10
2023-04-15T11:45:54.577Z,1.60
2023-04-15T11:48:30.641Z,1.63
2023-04-15T11:51:02.884Z,1.50
2023-04-15T11:53:50.764Z,1.70
2023-04-15T11:56:24.218Z,1.02
2023-04-15T11:59:01.579Z,1.63
2023-04-15T12:01:36.037Z,1.63
2023-04-15T12:04:13.881Z,1.08
2023-04-15T12:06:43.540Z,1.73
2023-04-15T12:09:21.589Z,1.63
2023-04-15T12:11:52.626Z,1.40
2023-04-15T12:14:44.611Z,1.70
2023-04-15T12:17:15.896Z,1.35
2023-04-15T12:22:25.226Z,1.52
2023-04-15T12:25:08.712Z,1.65
2023-04-15T12:27:38.145Z,1.98
2023-04-15T12:30:21.594Z,1.33
2023-04-15T12:32:51.054Z,1.85
2023-04-15T12:35:35.404Z,1.90
2023-04-15T12:38:04.973Z,1.80
2023-04-15T12:40:37.766Z,1.25
2023-04-15T12:43:07.400Z,1.27
2023-04-15T12:52:16.554Z,1.30
2023-04-15T12:54:47.638Z,1.67
2023-04-15T12:57:22.408Z,1.30
2023-04-15T12:59:52.531Z,1.50
2023-04-15T13:02:25.301Z,1.23
2023-04-15T13:05:10.135Z,1.50
2023-04-15T13:07:41.564Z,1.42
2023-04-15T13:10:12.033Z,1.40
2023-04-15T13:12:41.430Z,1.77
2023-04-15T13:15:13.136Z,1.63
2023-04-15T13:20:27.108Z,1.20
2023-04-15T13:22:58.432Z,1.75
2023-04-15T13:25:32.831Z,1.48
2023-04-15T13:28:15.131Z,2.00
2023-04-15T13:30:45.550Z,1.52
2023-04-15T13:33:14.891Z,1.90
2023-04-15T13:35:48.817Z,1.73
2023-04-15T13:38:20.292Z,1.67
2023-04-15T13:41:13.242Z,2.50
2023-04-15T13:43:42.584Z,2.40
2023-04-15T13:46:11.938Z,2.28
2023-04-15T13:48:43.208Z,1.92
2023-04-15T13:51:27.600Z,2.15
2023-04-15T13:54:00.939Z,2.90
2023-04-15T13:56:32.116Z,2.10
2023-04-15T13:59:02.969Z,2.45
2023-04-15T14:01:32.341Z,2.30
2023-04-15T14:04:11.853Z,2.75
2023-04-15T14:06:41.415Z,1.98
2023-04-15T14:11:53.026Z,2.88
2023-04-15T14:14:22.689Z,2.60
2023-04-15T14:16:52.469Z,2.20
2023-04-15T14:19:21.936Z,2.45
2023-04-15T14:22:03.209Z,2.78
2023-04-15T14:24:34.633Z,2.20
2023-04-15T14:27:04.047Z,2.17
2023-04-15T14:29:33.324Z,2.42
2023-04-15T14:32:08.575Z,2.33
2023-04-15T14:34:42.409Z,2.47
2023-04-15T14:37:26.917Z,1.60
2023-04-15T14:39:58.310Z,1.70
2023-04-15T14:42:32.932Z,1.40
2023-04-15T14:45:08.359Z,1.95
2023-04-15T14:47:37.974Z,1.65
2023-04-15T14:50:08.370Z,1.80
2023-04-15T14:52:47.978Z,2.17
2023-04-15T14:55:19.272Z,1.65
2023-04-15T14:57:53.969Z,1.73
2023-04-15T15:00:23.191Z,1.70
2023-04-15T15:02:52.718Z,1.48
2023-04-15T15:05:22.273Z,1.40
2023-04-15T15:07:51.925Z,1.65
2023-04-15T15:10:48.003Z,1.60
2023-04-15T15:15:44.850Z,1.60
2023-04-15T15:18:25.135Z,1.65
2023-04-15T15:20:59.822Z,2.15
2023-04-15T15:23:29.746Z,2.38
2023-04-15T15:28:36.484Z,2.15
2023-04-15T15:31:06.342Z,2.30
2023-04-15T15:33:36.243Z,2.95
2023-04-15T15:36:06.249Z,2.05
2023-04-15T15:38:48.620Z,2.58
2023-04-15T15:41:30.354Z,3.08
2023-04-15T15:43:59.794Z,3.10
2023-04-15T15:46:36.114Z,2.50
2023-04-15T15:49:06.016Z,2.70
2023-04-15T15:51:35.513Z,3.42
2023-04-15T15:54:09.933Z,2.13
2023-04-15T15:56:41.796Z,2.22
2023-04-15T15:59:12.854Z,2.10
2023-04-15T16:01:42.220Z,2.93
2023-04-15T16:04:12.187Z,3.00
2023-04-15T16:06:46.988Z,3.70
2023-04-15T16:09:16.495Z,2.40
2023-04-15T16:11:48.008Z,2.20
2023-04-15T16:14:17.477Z,2.13
2023-04-15T16:16:49.872Z,2.55
2023-04-15T16:19:19.690Z,2.25
2023-04-15T16:22:02.323Z,2.20
2023-04-15T16:24:33.802Z,2.20
2023-04-15T16:27:19.513Z,2.33
2023-04-15T16:29:48.985Z,2.67
2023-04-15T16:32:18.386Z,2.50
2023-04-15T16:34:47.814Z,3.15
2023-04-15T16:37:17.151Z,2.42
2023-04-15T16:42:54.352Z,3.08
2023-04-15T16:45:23.827Z,3.92
2023-04-15T16:47:53.082Z,3.63
2023-04-15T16:50:27.616Z,4.18
2023-04-15T16:52:56.869Z,3.33
2023-04-15T16:55:26.712Z,3.65
2023-04-15T16:58:02.401Z,4.63
2023-04-15T17:00:35.748Z,3.47
2023-04-15T17:03:06.564Z,3.70
2023-04-15T17:05:36.463Z,3.67
2023-04-15T17:08:06.385Z,4.78
2023-04-15T17:10:54.914Z,4.60
2023-04-15T17:13:31.467Z,4.10
2023-04-15T17:16:02.069Z,4.18
2023-04-15T17:18:41.354Z,3.78
2023-04-15T17:21:26.025Z,4.00
2023-04-15T17:24:00.478Z,3.88
2023-04-15T17:26:41.299Z,5.53
2023-04-15T17:29:14.452Z,4.88
2023-04-15T17:35:19.643Z,5.38
2023-04-15T17:38:26.876Z,4.90
2023-04-15T17:41:17.026Z,7.15
2023-04-15T17:44:11.584Z,6.20
2023-04-15T17:47:02.750Z,5.88
2023-04-15T17:50:02.064Z,6.20
2023-04-15T17:52:51.469Z,5.68
2023-04-15T17:55:47.944Z,5.65
2023-04-15T17:58:38.837Z,4.43
2023-04-15T18:01:28.410Z,6.65
2023-04-15T18:04:20.018Z,5.60
2023-04-15T18:07:09.685Z,9.60
2023-04-15T18:09:59.296Z,5.75
2023-04-15T18:12:53.714Z,4.70
2023-04-15T18:15:44.121Z,5.55
2023-04-15T18:18:39.828Z,4.70
2023-04-15T18:21:16.096Z,4.63
2023-04-15T18:23:50.697Z,4.28
2023-04-15T18:26:21.249Z,4.05
2023-04-15T18:28:50.642Z,4.15
2023-04-15T18:31:20.016Z,4.90
2023-04-15T18:33:50.362Z,3.75
2023-04-15T18:36:21.860Z,3.85
2023-04-15T18:38:57.506Z,3.75
2023-04-15T18:41:27.354Z,4.18
2023-04-15T18:44:07.782Z,4.30
2023-04-15T18:46:50.196Z,4.50
2023-04-15T18:49:27.101Z,4.53
2023-04-15T18:52:13.113Z,4.10
2023-04-15T18:54:53.580Z,3.75
2023-04-15T18:57:23.636Z,3.47
2023-04-15T19:00:02.522Z,3.60
2023-04-15T19:02:35.717Z,3.88
2023-04-15T19:05:06.595Z,3.97
2023-04-15T19:07:37.952Z,3.38
2023-04-15T19:10:22.930Z,3.65
2023-04-15T19:12:52.355Z,4.45
2023-04-15T19:15:21.847Z,5.28
2023-04-15T19:17:51.264Z,5.28
2023-04-15T19:20:20.564Z,5.78
2023-04-15T19:25:33.157Z,6.00
2023-04-15T19:28:07.493Z,5.53
2023-04-15T19:30:37.065Z,6.07
2023-04-15T19:33:07.037Z,6.00
2023-04-15T19:35:42.719Z,5.45
2023-04-15T19:38:14.354Z,5.72
2023-04-15T19:40:49.266Z,6.18
2023-04-15T19:43:31.501Z,6.72
2023-04-15T19:46:01.306Z,7.68
2023-04-15T19:48:30.716Z,6.68
2023-04-15T19:51:15.005Z,6.22
2023-04-15T19:53:53.712Z,5.45
2023-04-15T19:56:23.516Z,5.55
2023-04-15T19:58:53.572Z,5.70
2023-04-15T20:01:29.890Z,5.55
2023-04-15T20:04:18.306Z,5.03
2023-04-15T20:06:52.899Z,5.13
2023-04-15T20:09:24.271Z,5.10
2023-04-15T20:12:09.929Z,4.78
2023-04-15T20:14:45.561Z,4.60
2023-04-15T20:17:16.672Z,4.65
2023-04-15T20:19:46.217Z,4.60
2023-04-15T20:22:15.627Z,4.32
2023-04-15T20:24:47.231Z,4.65
2023-04-15T20:27:16.837Z,4.63
2023-04-15T20:29:46.168Z,4.80
2023-04-15T20:32:15.733Z,4.25
2023-04-15T20:34:45.042Z,5.15
2023-04-15T20:37:14.682Z,4.80
2023-04-15T20:39:43.950Z,4.93
2023-04-15T20:42:15.221Z,5.50
2023-04-15T20:44:53.539Z,4.85
2023-04-15T20:47:23.074Z,4.90
2023-04-15T20:49:52.550Z,4.55
2023-04-15T20:52:21.829Z,5.40
2023-04-15T20:54:51.070Z,4.60
2023-04-15T20:57:24.274Z,5.40
2023-04-15T20:59:54.809Z,4.10
2023-04-15T21:02:25.349Z,4.00
2023-04-15T21:04:55.369Z,4.45
2023-04-15T21:07:29.692Z,4.40
2023-04-15T21:09:59.368Z,4.32
2023-04-15T21:12:31.155Z,4.18
2023-04-15T21:15:01.381Z,4.57
2023-04-15T21:17:30.798Z,4.57
2023-04-15T21:20:11.348Z,4.20
2023-04-15T21:22:40.922Z,4.50
2023-04-15T21:25:11.494Z,3.97
2023-04-15T21:27:42.947Z,4.30
2023-04-15T21:30:14.182Z,4.35
2023-04-15T21:32:43.772Z,4.63
2023-04-15T21:35:13.103Z,4.40
2023-04-15T21:37:43.208Z,4.18
2023-04-15T21:40:14.470Z,3.95
2023-04-15T21:42:57.344Z,4.53
2023-04-15T21:45:27.164Z,4.63
2023-04-15T21:47:56.818Z,4.72
2023-04-15T21:50:41.938Z,4.68
2023-04-15T21:53:11.523Z,4.30
2023-04-15T21:55:46.984Z,4.70
2023-04-15T21:58:18.298Z,4.47
2023-04-15T22:00:47.723Z,3.50
2023-04-15T22:03:17.089Z,3.95
2023-04-15T22:05:47.793Z,4.47
2023-04-15T22:08:17.099Z,4.72
2023-04-15T22:10:46.200Z,4.20
2023-04-15T22:13:17.430Z,4.22
2023-04-15T22:15:46.772Z,3.38
2023-04-15T22:18:22.307Z,4.20
2023-04-15T22:20:51.684Z,3.90
2023-04-15T22:23:20.928Z,4.15
2023-04-15T22:26:00.367Z,3.95
2023-04-15T22:28:31.661Z,4.07
2023-04-15T22:31:01.894Z,4.00
2023-04-15T22:33:31.164Z,4.53
2023-04-15T22:36:00.430Z,4.57
2023-04-15T22:38:30.143Z,4.80
2023-04-15T22:40:59.901Z,4.32
2023-04-15T22:43:36.155Z,4.63
2023-04-15T22:46:10.734Z,5.30
2023-04-15T22:48:40.054Z,4.90
2023-04-15T22:51:10.531Z,4.57
2023-04-15T22:53:49.938Z,4.43
2023-04-15T22:56:21.340Z,4.22
2023-04-15T22:59:00.923Z,3.85
2023-04-15T23:01:31.637Z,4.32
2023-04-15T23:04:08.288Z,4.05
2023-04-15T23:06:50.814Z,4.20
2023-04-15T23:09:20.638Z,4.28
2023-04-15T23:11:50.005Z,4.40
2023-04-15T23:17:01.033Z,3.95
2023-04-15T23:19:30.571Z,4.00
2023-04-15T23:22:06.759Z,4.07
2023-04-15T23:24:36.038Z,3.50
2023-04-15T23:27:05.811Z,4.03
2023-04-15T23:29:37.106Z,3.88
2023-04-15T23:32:17.324Z,3.45
2023-04-15T23:34:51.726Z,4.13
2023-04-15T23:37:21.226Z,4.68
2023-04-15T23:39:55.632Z,3.92
2023-04-15T23:42:25.655Z,4.32
2023-04-15T23:44:56.907Z,4.35
2023-04-15T23:47:34.797Z,4.65
2023-04-15T23:50:04.298Z,4.00
2023-04-15T23:52:33.677Z,4.25
2023-04-15T23:55:02.895Z,3.67
